createdAt,value
2018-02-04T08:24:49.286Z,0.33
2018-02-04T08:25:49.344Z,0.29
2018-02-04T08:26:49.215Z,0.29
2018-02-04T08:27:49.187Z,0.21
2018-02-04T09:19:21.402Z,0.66
2018-02-04T09:20:19.138Z,0.72
2018-02-04T09:21:19.159Z,0.65
2018-02-04T09:22:19.091Z,0.66
2018-02-04T09:23:19.120Z,0.75
2018-02-04T09:24:19.037Z,0.65
2018-02-04T09:25:19.029Z,0.78
2018-02-04T09:26:19.012Z,0.72
2018-02-04T09:27:19.016Z,0.86
2018-02-04T09:28:18.971Z,0.94
2018-02-04T09:29:19.005Z,0.96
2018-02-04T09:30:18.924Z,1.08
2018-02-04T09:31:18.908Z,1.12
2018-02-04T09:32:18.890Z,1.16
2018-02-04T09:33:18.878Z,1.16
2018-02-04T09:34:18.858Z,1.11
2018-02-04T09:35:18.867Z,1.14
2018-02-04T09:36:18.816Z,1.14
2018-02-04T09:37:18.804Z,1.08
2018-02-04T09:38:18.772Z,1.09
2018-02-04T09:39:18.769Z,1.09
2018-02-04T09:40:18.776Z,1.20
2018-02-04T09:41:18.721Z,1.06
2018-02-04T09:42:18.703Z,1.02
2018-02-04T09:43:18.682Z,1.20
2018-02-04T09:44:18.672Z,1.16
2018-02-04T09:45:18.680Z,1.29
2018-02-04T09:46:18.656Z,1.30
2018-02-04T09:47:18.605Z,1.32
2018-02-04T09:48:18.595Z,1.48
2018-02-04T09:49:18.573Z,1.33
2018-02-04T09:50:18.552Z,1.32
2018-02-04T09:51:18.581Z,1.32
2018-02-04T09:52:18.519Z,1.23
2018-02-04T09:53:18.499Z,1.20
2018-02-04T09:54:18.480Z,1.20
2018-02-04T09:55:18.516Z,1.22
2018-02-04T09:56:18.444Z,1.18
2018-02-04T09:57:18.610Z,1.23
2018-02-04T09:58:18.409Z,1.15
2018-02-04T09:59:18.383Z,1.12
2018-02-04T10:00:18.454Z,1.18
2018-02-04T10:07:41.841Z,1.22
2018-02-04T10:08:41.810Z,1.26
2018-02-04T10:09:41.791Z,1.26
2018-02-04T10:10:41.949Z,1.24
2018-02-04T10:11:42.223Z,1.32
2018-02-04T10:12:41.902Z,1.37
2018-02-04T10:13:41.719Z,1.34
2018-02-04T10:14:41.701Z,1.40
2018-02-04T10:15:41.718Z,1.47
2018-02-04T10:16:41.672Z,1.48
2018-02-04T10:17:41.650Z,1.45
2018-02-04T10:18:41.628Z,1.47
2018-02-04T10:19:41.604Z,1.42
2018-02-04T10:20:41.589Z,1.44
2018-02-04T10:21:41.609Z,1.40
2018-02-04T10:22:41.555Z,1.40
2018-02-04T10:23:41.569Z,1.47
2018-02-04T10:24:41.521Z,1.62
2018-02-04T10:25:41.500Z,1.58
2018-02-04T10:26:41.484Z,1.69
2018-02-04T10:27:41.473Z,1.76
2018-02-04T10:28:41.505Z,1.84
2018-02-04T10:29:41.431Z,1.84
2018-02-04T10:30:41.447Z,1.81
2018-02-04T10:31:41.400Z,1.81
2018-02-04T10:32:41.371Z,1.79
2018-02-04T10:33:41.356Z,1.69
2018-02-04T10:34:41.345Z,1.68
2018-02-04T10:35:41.318Z,1.58
2018-02-04T10:36:41.302Z,1.70
2018-02-04T10:37:41.278Z,1.68
2018-02-04T10:38:41.321Z,1.62
2018-02-04T10:39:41.246Z,1.54
2018-02-04T10:40:41.224Z,1.59
2018-02-04T10:41:41.207Z,1.48
2018-02-04T10:42:41.200Z,1.36
2018-02-04T10:43:41.180Z,1.34
2018-02-04T10:44:41.187Z,1.27
2018-02-04T10:45:41.146Z,1.36
2018-02-04T10:46:41.121Z,1.42
2018-02-04T10:47:41.096Z,1.41
2018-02-04T10:48:41.079Z,1.34
2018-02-04T10:49:41.096Z,1.42
2018-02-04T10:50:41.049Z,1.44
2018-02-04T10:51:41.031Z,1.42
2018-02-04T10:52:41.016Z,1.44
2018-02-04T10:53:40.988Z,1.45
2018-02-04T10:54:40.982Z,1.44
2018-02-04T10:55:40.985Z,1.45
2018-02-04T10:56:40.934Z,1.48
2018-02-04T10:57:40.925Z,1.41
2018-02-04T10:58:40.896Z,1.41
2018-02-04T10:59:40.948Z,1.30
2018-02-04T11:00:40.861Z,1.34
2018-02-04T11:01:40.854Z,1.30
2018-02-04T11:02:40.830Z,1.29
2018-02-04T11:03:40.816Z,1.33
2018-02-04T11:04:40.793Z,1.29
2018-02-04T11:05:41.100Z,1.27
2018-02-04T11:06:40.755Z,1.37
2018-02-04T11:07:40.732Z,1.37
2018-02-04T11:08:40.721Z,1.45
2018-02-04T11:09:40.698Z,1.42
2018-02-04T11:10:40.682Z,1.45
2018-02-04T11:11:40.699Z,1.42
2018-02-04T11:12:40.658Z,1.55
2018-02-04T11:13:40.634Z,1.54
2018-02-04T11:14:40.612Z,1.54
2018-02-04T11:15:40.595Z,1.62
2018-02-04T11:16:41.179Z,1.59
2018-02-04T11:17:40.561Z,1.59
2018-02-04T11:18:40.538Z,1.63
2018-02-04T11:19:40.521Z,1.65
2018-02-04T11:20:40.501Z,1.60
2018-02-04T11:21:40.484Z,1.66
2018-02-04T11:22:40.497Z,1.68
2018-02-04T11:23:40.448Z,1.63
2018-02-04T11:24:40.434Z,1.62
2018-02-04T11:25:40.448Z,1.72
2018-02-04T11:26:40.394Z,1.73
2018-02-04T11:27:40.376Z,1.69
2018-02-04T11:28:40.354Z,1.66
2018-02-04T11:29:40.388Z,1.68
2018-02-04T11:30:40.319Z,1.77
2018-02-04T11:31:40.308Z,1.70
2018-02-04T11:32:40.289Z,1.90
2018-02-04T11:33:40.263Z,1.87
2018-02-04T11:34:42.250Z,1.84
2018-02-04T11:35:41.634Z,1.87
2018-02-04T11:36:40.281Z,1.87
2018-02-04T11:37:40.274Z,1.90
2018-02-04T11:38:40.182Z,1.86
2018-02-04T11:41:53.920Z,1.83
2018-02-04T11:42:53.863Z,1.80
2018-02-04T11:43:53.845Z,1.72
2018-02-04T11:44:53.822Z,1.69
2018-02-04T11:45:53.814Z,1.76
2018-02-04T11:46:53.813Z,1.76
2018-02-04T11:47:53.778Z,1.77
2018-02-04T12:04:29.981Z,1.87
2018-02-04T12:05:29.892Z,1.87
2018-02-04T12:06:29.877Z,1.93
2018-02-04T12:07:29.853Z,1.88
2018-02-04T12:08:29.839Z,1.86
2018-02-04T12:09:29.818Z,1.95
2018-02-04T12:10:29.865Z,2.00
2018-02-04T12:11:29.794Z,2.02
2018-02-04T12:12:29.772Z,2.07
2018-02-04T12:13:29.756Z,2.03
2018-02-04T12:14:29.731Z,2.12
2018-02-04T12:15:29.709Z,2.09
2018-02-04T12:16:29.699Z,2.12
2018-02-04T12:17:29.683Z,2.05
2018-02-04T12:18:29.669Z,2.14
2018-02-04T12:19:29.642Z,2.00
2018-02-04T12:20:29.628Z,2.03
2018-02-04T12:21:29.757Z,1.99
2018-02-04T12:22:29.630Z,2.03
2018-02-04T12:23:29.575Z,2.03
2018-02-04T12:24:29.558Z,2.02
2018-02-04T12:25:29.539Z,2.12
2018-02-04T12:26:29.520Z,2.14
2018-02-04T12:27:29.559Z,2.06
2018-02-04T12:28:29.489Z,2.06
2018-02-04T12:29:29.476Z,2.10
2018-02-04T12:30:29.463Z,1.95
2018-02-04T12:31:29.441Z,1.93
2018-02-04T12:32:29.417Z,1.91
2018-02-04T12:33:29.406Z,1.93
2018-02-04T12:34:29.381Z,1.99
2018-02-04T12:35:29.362Z,1.90
2018-02-04T12:36:29.363Z,1.95
2018-02-04T12:37:29.325Z,1.83
2018-02-04T12:38:29.318Z,1.73
2018-02-04T12:39:29.293Z,1.83
2018-02-04T12:40:29.285Z,1.87
2018-02-04T12:41:29.261Z,1.87
2018-02-04T12:42:29.240Z,1.87
2018-02-04T12:43:30.195Z,1.87
2018-02-04T12:44:30.203Z,1.81
2018-02-04T12:45:29.890Z,1.88
2018-02-04T12:46:29.850Z,1.87
2018-02-04T12:47:29.832Z,1.93
2018-02-04T12:48:29.882Z,1.93
2018-02-04T12:49:29.987Z,1.90
2018-02-04T12:50:30.257Z,2.00
2018-02-04T12:51:29.755Z,1.86
2018-02-04T12:52:29.685Z,1.84
2018-02-04T12:53:29.811Z,1.98
2018-02-04T12:54:30.356Z,1.90
2018-02-04T12:55:29.709Z,1.95
2018-02-04T12:56:29.780Z,1.98
2018-02-04T12:57:29.595Z,2.09
2018-02-04T12:58:29.639Z,2.06
2018-02-04T12:59:30.469Z,2.14
2018-02-04T13:00:30.416Z,2.06
2018-02-04T13:01:29.601Z,2.10
2018-02-04T13:02:29.651Z,2.10
2018-02-04T13:03:29.652Z,2.09
2018-02-04T13:04:29.469Z,2.03
2018-02-04T13:05:29.530Z,2.05
2018-02-04T13:06:29.532Z,2.14
2018-02-04T13:07:30.091Z,2.14
2018-02-04T13:08:29.255Z,2.07
2018-02-04T13:09:28.760Z,2.07
2018-02-04T13:10:28.741Z,2.06
2018-02-04T13:11:28.721Z,2.05
2018-02-04T13:12:28.708Z,2.07
2018-02-04T13:13:29.008Z,2.10
2018-02-04T13:14:28.664Z,2.12
2018-02-04T13:15:28.657Z,2.10
2018-02-04T13:16:28.633Z,2.09
2018-02-04T13:17:28.612Z,2.09
2018-02-04T13:18:28.833Z,2.07
2018-02-04T13:19:28.580Z,2.10
2018-02-04T13:20:30.101Z,2.07
2018-02-04T13:21:28.537Z,2.07
2018-02-04T13:22:28.525Z,2.07
2018-02-04T13:23:29.010Z,1.98
2018-02-04T13:24:29.127Z,2.00
2018-02-04T13:25:28.473Z,1.95
2018-02-04T13:26:28.450Z,1.91
2018-02-04T13:27:28.461Z,1.98
2018-02-04T13:28:28.420Z,1.99
2018-02-04T13:29:29.183Z,2.00
2018-02-04T13:30:28.406Z,1.95
2018-02-04T13:31:28.365Z,1.98
2018-02-04T13:32:28.363Z,1.98
2018-02-04T13:33:28.329Z,1.88
2018-02-04T13:34:28.307Z,1.91
2018-02-04T13:35:28.325Z,1.95
2018-02-04T13:36:28.271Z,1.98
2018-02-04T13:37:28.263Z,2.02
2018-02-04T13:38:28.235Z,1.98
2018-02-04T13:39:28.213Z,1.84
2018-02-04T13:40:28.509Z,1.91
2018-02-04T13:41:28.289Z,1.90
2018-02-04T13:42:28.169Z,1.90
2018-02-04T13:43:28.148Z,1.95
2018-02-04T13:44:28.384Z,2.02
2018-02-04T13:45:28.689Z,1.95
2018-02-04T13:46:28.095Z,1.86
2018-02-04T13:47:28.076Z,1.88
2018-02-04T13:48:28.070Z,1.87
2018-02-04T13:49:28.045Z,1.83
2018-02-04T13:50:28.537Z,1.72
2018-02-04T13:51:28.144Z,1.83
2018-02-04T13:52:28.017Z,1.77
2018-02-04T13:53:27.977Z,1.73
2018-02-04T13:54:27.946Z,1.81
2018-02-04T13:55:27.932Z,1.79
2018-02-04T13:56:27.911Z,1.83
2018-02-04T13:57:27.944Z,1.88
2018-02-04T13:58:27.904Z,1.86
2018-02-04T13:59:27.861Z,1.84
2018-02-04T14:00:27.840Z,1.84
2018-02-04T14:01:27.816Z,1.86
2018-02-04T14:02:27.803Z,1.83
2018-02-04T14:03:27.812Z,2.02
2018-02-04T14:04:27.768Z,1.93
2018-02-04T14:05:27.750Z,2.07
2018-02-04T14:06:27.725Z,2.09
2018-02-04T14:07:27.717Z,1.90
2018-02-04T14:08:27.755Z,2.03
2018-02-04T14:09:27.674Z,2.12
2018-02-04T14:10:27.661Z,2.14
2018-02-04T14:11:27.641Z,2.03
2018-02-04T14:12:27.629Z,2.10
2018-02-04T14:13:27.613Z,2.14
2018-02-04T14:14:27.634Z,2.16
2018-02-04T14:15:27.575Z,2.10
2018-02-04T14:16:27.561Z,2.06
2018-02-04T14:17:27.535Z,2.18
2018-02-04T14:18:27.514Z,2.10
2018-02-04T14:19:27.735Z,2.05
2018-02-04T14:20:27.475Z,1.99
2018-02-04T14:21:27.472Z,2.03
2018-02-04T14:22:27.450Z,2.07
2018-02-04T14:23:27.429Z,2.06
2018-02-04T14:24:27.416Z,2.06
2018-02-04T14:25:27.403Z,2.03
2018-02-04T14:26:27.403Z,2.12
2018-02-04T14:27:27.354Z,2.03
2018-02-04T14:28:27.336Z,2.00
2018-02-04T14:29:27.351Z,1.98
2018-02-04T14:30:27.300Z,2.09
2018-02-04T14:31:27.284Z,2.09
2018-02-04T14:32:27.267Z,2.10
2018-02-04T14:33:27.248Z,2.12
2018-02-04T14:34:27.255Z,2.09
2018-02-04T14:35:27.207Z,2.16
2018-02-04T14:36:27.195Z,2.14
2018-02-04T14:37:27.178Z,2.09
2018-02-04T14:38:27.160Z,2.07
2018-02-04T14:39:27.188Z,2.16
2018-02-04T14:40:27.128Z,2.20
2018-02-04T14:41:27.112Z,2.24
2018-02-04T14:42:27.092Z,2.30
2018-02-04T14:43:27.066Z,2.34
2018-02-04T14:44:27.052Z,2.20
2018-02-04T14:45:27.053Z,2.12
2018-02-04T14:46:27.647Z,2.10
2018-02-04T14:47:27.112Z,2.12
2018-02-04T14:48:26.976Z,2.16
2018-02-04T14:49:26.959Z,2.14
2018-02-04T14:50:27.930Z,2.17
2018-02-04T14:51:26.926Z,2.14
2018-02-04T14:52:26.912Z,2.12
2018-02-04T14:53:26.891Z,2.14
2018-02-04T14:54:27.148Z,2.07
2018-02-04T14:55:26.853Z,2.07
2018-02-04T14:56:27.168Z,2.06
2018-02-04T14:57:26.829Z,2.09
2018-02-04T14:58:26.797Z,2.00
2018-02-04T14:59:26.778Z,2.07
2018-02-04T15:00:26.774Z,2.00
2018-02-04T15:01:26.846Z,2.10
2018-02-04T15:02:26.748Z,2.05
2018-02-04T15:03:26.729Z,2.09
2018-02-04T15:04:26.739Z,2.16
2018-02-04T15:05:27.221Z,2.09
2018-02-04T15:06:26.655Z,2.12
2018-02-04T15:07:26.752Z,2.16
2018-02-04T15:08:26.656Z,2.07
2018-02-04T15:09:27.080Z,2.02
2018-02-04T15:10:26.587Z,2.09
2018-02-04T15:11:26.576Z,1.99
2018-02-04T15:12:26.615Z,2.10
2018-02-04T15:13:26.555Z,2.02
2018-02-04T15:14:26.528Z,2.07
2018-02-04T15:15:26.488Z,2.06
2018-02-04T15:16:26.541Z,2.05
2018-02-04T15:17:26.451Z,2.05
2018-02-04T15:18:26.480Z,2.14
2018-02-04T15:19:26.416Z,2.07
2018-02-04T15:20:26.411Z,2.02
2018-02-04T15:21:26.379Z,2.00
2018-02-04T15:22:26.363Z,2.00
2018-02-04T15:23:26.350Z,1.98
2018-02-04T15:24:26.372Z,2.02
2018-02-04T15:25:26.334Z,1.98
2018-02-04T15:26:26.668Z,1.95
2018-02-04T15:27:29.191Z,1.95
2018-02-04T15:46:44.619Z,1.76
2018-02-04T15:47:39.198Z,1.76
2018-02-04T15:48:39.172Z,1.76
2018-02-04T15:49:39.190Z,1.72
2018-02-04T15:50:39.177Z,1.80
2018-02-04T15:51:39.151Z,1.72
2018-02-04T15:52:39.105Z,1.73
2018-02-04T15:56:00.715Z,1.73
2018-02-04T15:56:59.505Z,1.77
2018-02-04T15:57:59.517Z,1.72
2018-02-04T15:58:59.481Z,1.76
2018-02-04T15:59:59.513Z,1.72
2018-02-04T16:00:59.676Z,1.72
2018-02-04T16:01:59.448Z,1.69
2018-02-04T16:02:59.426Z,1.77
2018-02-04T16:04:01.150Z,1.76
2018-02-04T16:04:59.386Z,1.77
2018-02-04T16:05:59.357Z,1.76
2018-02-04T16:06:59.350Z,1.70
2018-02-04T16:07:59.351Z,1.69
2018-02-04T16:08:59.297Z,1.66
2018-02-04T16:09:59.273Z,1.65
2018-02-04T16:10:59.258Z,1.65
2018-02-04T16:11:59.610Z,1.63
2018-02-04T16:12:59.226Z,1.62
2018-02-04T16:13:59.212Z,1.62
2018-02-04T16:14:59.188Z,1.62
2018-02-04T16:15:59.243Z,1.62
2018-02-04T16:16:59.150Z,1.60
2018-02-04T16:17:59.288Z,1.68
2018-02-04T16:18:59.108Z,1.62
2018-02-04T16:19:59.100Z,1.69
2018-02-04T16:20:59.103Z,1.65
2018-02-04T16:21:59.055Z,1.60
2018-02-04T16:23:00.669Z,1.66
2018-02-04T16:23:59.036Z,1.70
2018-02-04T16:24:59.006Z,1.58
2018-02-04T16:25:58.976Z,1.70
2018-02-04T16:26:58.970Z,1.66
2018-02-04T16:27:58.946Z,1.55
2018-02-04T16:28:59.182Z,1.55
2018-02-04T16:29:58.908Z,1.58
2018-02-04T16:30:58.947Z,1.52
2018-02-04T16:31:58.908Z,1.50
2018-02-04T16:32:58.859Z,1.52
2018-02-04T16:33:58.842Z,1.51
2018-02-04T16:34:59.140Z,1.45
2018-02-04T16:35:58.785Z,1.51
2018-02-04T16:36:58.785Z,1.58
2018-02-04T16:37:58.757Z,1.60
2018-02-04T16:38:58.735Z,1.60
2018-02-04T16:39:58.717Z,1.52
2018-02-04T16:40:58.818Z,1.50
2018-02-04T16:41:58.681Z,1.59
2018-02-04T16:42:58.675Z,1.54
2018-02-04T16:43:58.641Z,1.66
2018-02-04T16:44:58.641Z,1.55
2018-02-04T16:45:58.603Z,1.55
2018-02-04T16:46:59.673Z,1.63
2018-02-04T16:47:58.600Z,1.66
2018-02-04T16:48:58.549Z,1.66
2018-02-04T16:49:59.152Z,1.66
2018-02-04T16:50:58.506Z,1.70
2018-02-04T18:55:09.349Z,1.58
2018-02-04T18:56:09.046Z,1.60
2018-02-04T18:57:09.006Z,1.52
2018-02-04T18:58:09.014Z,1.66
2018-02-04T18:59:08.985Z,1.55
2018-02-04T19:00:09.046Z,1.52
2018-02-04T19:01:08.934Z,1.65
2018-02-04T19:02:08.928Z,1.54
2018-02-04T19:03:08.946Z,1.63
2018-02-04T19:04:08.889Z,1.60
2018-02-04T19:05:08.873Z,1.58
2018-02-04T19:06:08.853Z,1.58
2018-02-04T19:07:08.916Z,1.58
2018-02-04T19:08:08.812Z,1.65
2018-02-04T19:09:08.796Z,1.58
2018-02-04T19:10:08.782Z,1.66
2018-02-04T19:11:08.759Z,1.52
2018-02-04T19:12:08.738Z,1.54
2018-02-04T19:13:08.761Z,1.63
2018-02-04T19:14:08.712Z,1.59
2018-02-04T19:15:08.694Z,1.62
2018-02-04T19:16:08.670Z,1.63
2018-02-04T19:17:08.654Z,1.69
2018-02-04T19:18:08.690Z,1.72
2018-02-04T19:19:08.610Z,1.70
2018-02-04T19:20:08.592Z,1.77
2018-02-04T19:21:08.578Z,1.76
2018-02-04T19:22:08.550Z,1.73
2018-02-04T19:23:08.623Z,1.73
2018-02-04T19:24:30.551Z,1.80
2018-02-04T19:25:08.497Z,1.81
2018-02-04T19:26:08.480Z,1.86
2018-02-04T19:27:09.238Z,1.88
2018-02-04T19:28:08.437Z,1.99
2018-02-04T19:29:08.415Z,1.93
2018-02-04T19:30:08.435Z,2.07
2018-02-04T19:31:08.437Z,2.03
2018-02-04T19:32:08.362Z,2.03
2018-02-04T19:33:08.345Z,2.05
2018-02-04T19:34:08.378Z,2.06
2018-02-04T19:35:08.307Z,2.14
2018-02-04T19:36:08.296Z,2.12
2018-02-04T19:37:08.314Z,2.09
2018-02-04T19:38:08.255Z,2.05
2018-02-04T19:39:08.226Z,1.93
2018-02-04T19:40:08.253Z,2.07
2018-02-04T19:41:08.198Z,2.00
2018-02-04T19:42:08.193Z,2.05
2018-02-04T19:43:08.159Z,2.05
2018-02-04T19:44:08.151Z,2.00
2018-02-04T19:45:08.174Z,2.12
2018-02-04T19:46:08.104Z,1.99
2018-02-04T19:47:08.085Z,1.93
2018-02-04T19:48:08.077Z,1.98
2018-02-04T19:49:08.051Z,2.05
2018-02-04T19:50:08.304Z,1.88
2018-02-04T19:51:08.014Z,1.83
2018-02-04T19:52:08.017Z,1.87
2018-02-04T19:53:07.977Z,1.91
2018-02-04T19:54:24.745Z,1.84
2018-02-04T19:55:07.931Z,1.87
2018-02-04T19:56:08.741Z,1.86
2018-02-04T19:57:07.907Z,1.87
2018-02-04T19:58:07.884Z,1.80
2018-02-04T19:59:07.861Z,1.84
2018-02-04T20:00:07.858Z,1.86
2018-02-04T20:01:07.892Z,1.76
2018-02-04T20:02:07.812Z,1.77
2018-02-04T20:03:07.795Z,1.80
2018-02-04T20:04:08.773Z,1.88
2018-02-04T20:05:07.788Z,1.86
2018-02-04T20:06:07.736Z,1.88
2018-02-04T20:07:07.748Z,1.88
2018-02-04T20:08:07.704Z,1.86
2018-02-04T20:09:07.677Z,1.88
2018-02-04T20:10:07.652Z,1.83
2018-02-04T20:11:07.649Z,1.83
2018-02-04T20:12:07.625Z,1.73
2018-02-04T20:13:07.601Z,1.80
2018-02-04T20:14:07.581Z,1.79
2018-02-04T20:15:07.569Z,1.73
2018-02-04T20:16:07.567Z,1.68
2018-02-04T20:17:07.535Z,1.73
2018-02-04T20:18:07.504Z,1.79
2018-02-04T20:19:07.491Z,1.88
2018-02-04T20:20:07.482Z,1.84
2018-02-04T20:21:07.790Z,1.86
2018-02-04T20:22:07.443Z,1.83
2018-02-04T20:23:07.420Z,1.86
2018-02-04T20:24:07.396Z,1.79
2018-02-04T20:25:07.381Z,1.87
2018-02-04T20:26:07.362Z,1.83
2018-02-04T20:27:08.089Z,1.87
2018-02-04T20:28:07.329Z,1.88
2018-02-04T20:29:07.308Z,1.88
2018-02-04T20:30:07.282Z,1.87
2018-02-04T20:31:07.265Z,1.87
2018-02-04T20:32:07.265Z,1.84
2018-02-04T20:33:07.298Z,1.93
2018-02-04T20:34:07.222Z,2.02
2018-02-04T20:35:07.192Z,1.93
2018-02-04T20:36:07.184Z,2.02
2018-02-04T20:37:07.164Z,2.06
2018-02-04T20:38:07.137Z,2.05
2018-02-04T20:39:07.149Z,1.95
2018-02-04T20:40:07.109Z,2.05
2018-02-04T20:41:07.080Z,2.06
2018-02-04T20:42:07.061Z,2.02
2018-02-04T20:43:07.052Z,2.05
2018-02-04T20:44:07.087Z,1.93
2018-02-04T20:45:07.007Z,2.05
2018-02-04T20:46:06.987Z,1.95
2018-02-04T20:47:06.974Z,1.95
2018-02-04T20:48:06.954Z,1.95
2018-02-04T20:49:06.968Z,2.09
2018-02-04T20:50:07.020Z,2.12
2018-02-04T20:51:07.004Z,2.07
2018-02-04T20:52:07.073Z,2.03
2018-02-04T20:53:06.885Z,2.06
2018-02-04T20:54:06.838Z,2.12
2018-02-04T20:55:07.034Z,2.12
2018-02-04T20:56:06.903Z,2.16
2018-02-04T20:57:06.850Z,2.16
2018-02-04T20:58:07.928Z,2.21
2018-02-04T20:59:06.746Z,2.16
2018-02-04T21:00:06.765Z,2.10
2018-02-04T21:01:06.713Z,2.18
2018-02-04T21:02:06.693Z,2.14
2018-02-04T21:03:06.690Z,2.16
2018-02-04T21:04:11.451Z,2.17
2018-02-04T21:05:06.643Z,2.17
2018-02-04T21:06:06.635Z,2.14
2018-02-04T21:07:06.598Z,2.20
2018-02-04T21:08:06.591Z,2.21
2018-02-04T21:09:06.560Z,2.18
2018-02-04T21:10:06.541Z,2.25
2018-02-04T21:11:06.566Z,2.21
2018-02-04T21:12:06.517Z,2.18
2018-02-04T21:13:06.492Z,2.24
2018-02-04T21:14:06.477Z,2.21
2018-02-04T21:15:06.520Z,2.28
2018-02-04T21:16:06.444Z,2.28
2018-02-04T21:17:06.416Z,2.25
2018-02-04T21:18:06.397Z,2.21
2018-02-04T21:19:06.384Z,2.30
2018-02-04T21:20:06.360Z,2.23
2018-02-04T21:21:06.379Z,2.20
2018-02-04T21:22:06.331Z,2.25
2018-02-04T21:23:06.306Z,2.24
2018-02-04T21:24:06.291Z,2.25
2018-02-04T21:25:06.268Z,2.25
2018-02-04T21:26:06.589Z,2.21
2018-02-04T21:27:06.238Z,2.21
2018-02-04T21:28:06.214Z,2.10
2018-02-04T21:29:06.195Z,2.18
2018-02-04T21:30:06.182Z,2.23
2018-02-04T21:31:06.166Z,2.27
2018-02-04T21:32:06.174Z,2.28
2018-02-04T21:33:06.125Z,2.21
2018-02-04T21:34:12.894Z,2.31
2018-02-04T21:35:06.087Z,2.30
2018-02-04T21:36:06.071Z,2.34
2018-02-04T21:37:06.085Z,2.31
2018-02-04T21:38:06.032Z,2.30
2018-02-04T21:39:06.017Z,2.35
2018-02-04T21:40:05.997Z,2.24
2018-02-04T21:41:05.978Z,2.36
2018-02-04T21:42:06.027Z,2.24
2018-02-04T21:43:05.943Z,2.27
2018-02-04T21:44:05.924Z,2.31
2018-02-04T21:45:05.910Z,2.30
2018-02-04T21:46:05.889Z,2.28
2018-02-04T21:47:05.872Z,2.36
2018-02-04T21:48:05.860Z,2.28
2018-02-04T21:49:05.833Z,2.27
2018-02-04T21:50:05.819Z,2.27
2018-02-04T21:51:05.800Z,2.27
2018-02-04T21:52:05.783Z,2.31
2018-02-04T21:53:05.832Z,2.28
2018-02-04T21:54:05.748Z,2.31
2018-02-04T21:55:05.725Z,2.30
2018-02-04T21:56:05.708Z,2.30
2018-02-04T21:57:05.695Z,2.39
2018-02-04T21:58:05.667Z,2.28
2018-02-04T21:59:05.824Z,2.28
2018-02-04T22:00:05.630Z,2.28
2018-02-04T22:01:05.619Z,2.38
2018-02-04T22:02:05.597Z,2.25
2018-02-04T22:03:05.578Z,2.21
2018-02-04T22:04:06.663Z,2.30
2018-02-04T22:05:05.549Z,2.27
2018-02-04T22:06:05.527Z,2.30
2018-02-04T22:07:05.507Z,2.27
2018-02-04T22:08:05.482Z,2.21
2018-02-04T22:09:05.469Z,2.25
2018-02-04T22:10:05.801Z,2.21
2018-02-04T22:11:05.434Z,2.14
2018-02-04T22:12:05.412Z,2.12
2018-02-04T22:13:05.397Z,2.12
2018-02-04T22:14:05.376Z,2.12
2018-02-04T22:15:05.395Z,2.10
2018-02-04T22:16:05.409Z,2.23
2018-02-04T22:17:05.318Z,2.20
2018-02-04T22:18:05.304Z,2.24
2018-02-04T22:19:05.287Z,2.30
2018-02-04T22:20:05.262Z,2.24
2018-02-04T22:21:05.243Z,2.21
2018-02-04T22:22:05.252Z,2.21
2018-02-04T22:23:05.210Z,2.24
2018-02-04T22:24:05.197Z,2.27
2018-02-04T22:25:05.172Z,2.24
2018-02-04T22:26:05.327Z,2.23
2018-02-04T22:27:05.136Z,2.16
2018-02-04T22:28:05.119Z,2.16
2018-02-04T22:29:05.101Z,2.16
2018-02-04T22:30:05.082Z,2.05
2018-02-04T22:31:05.068Z,2.09
2018-02-04T22:32:05.064Z,2.02
2018-02-04T22:33:05.032Z,2.07
2018-02-04T22:34:05.051Z,2.12
2018-02-04T22:35:05.016Z,2.05
2018-02-04T22:36:04.973Z,2.05
2018-02-04T22:37:05.001Z,2.05
2018-02-04T22:38:04.940Z,2.09
2018-02-04T22:39:04.922Z,2.09
2018-02-04T22:40:04.950Z,2.10
2018-02-04T22:41:04.877Z,2.03
2018-02-04T22:42:04.938Z,1.98
2018-02-04T22:43:04.848Z,2.00
2018-02-04T22:44:04.835Z,2.00
2018-02-04T22:45:04.816Z,2.14
2018-02-04T22:46:04.793Z,2.06
2018-02-04T22:47:04.772Z,2.14
2018-02-04T22:48:04.814Z,2.03
2018-02-04T22:49:04.735Z,2.05
2018-02-04T22:50:04.712Z,1.99
2018-02-04T22:51:04.699Z,2.12
2018-02-04T22:52:04.680Z,2.06
2018-02-04T22:53:04.664Z,2.12
2018-02-04T22:54:04.660Z,2.10
2018-02-04T22:55:04.617Z,2.09
2018-02-04T22:56:04.603Z,2.12
2018-02-04T22:57:04.946Z,2.09
2018-02-04T22:58:04.564Z,2.23
2018-02-04T22:59:04.551Z,2.20
2018-02-04T23:00:04.530Z,2.27
2018-02-04T23:01:04.502Z,2.24
2018-02-04T23:02:04.490Z,2.21
2018-02-04T23:03:04.508Z,2.25
2018-02-04T23:04:04.451Z,2.24
2018-02-04T23:05:04.447Z,2.21
2018-02-04T23:06:04.430Z,2.21
2018-02-04T23:07:04.403Z,2.21
2018-02-04T23:08:04.420Z,2.24
2018-02-04T23:09:04.403Z,2.24
2018-02-04T23:10:04.359Z,2.35
2018-02-04T23:11:04.363Z,2.36
2018-02-04T23:12:04.313Z,2.28
2018-02-04T23:13:04.290Z,2.34
2018-02-04T23:14:04.603Z,2.36
2018-02-04T23:15:04.259Z,2.36
2018-02-04T23:16:04.241Z,2.28
2018-02-04T23:17:04.232Z,2.31
2018-02-04T23:18:04.194Z,2.42
2018-02-04T23:19:04.179Z,2.41
2018-02-04T23:20:04.224Z,2.45
2018-02-04T23:21:04.143Z,2.43
2018-02-04T23:22:04.124Z,2.41
2018-02-04T23:23:04.104Z,2.48
2018-02-04T23:24:04.086Z,2.41
2018-02-04T23:25:04.107Z,2.38
2018-02-04T23:26:04.071Z,2.45
2018-02-04T23:27:04.040Z,2.52
2018-02-04T23:28:04.019Z,2.52
2018-02-04T23:29:03.993Z,2.56
2018-02-04T23:30:04.038Z,2.48
2018-02-04T23:31:03.966Z,2.52
2018-02-04T23:32:24.945Z,2.56
2018-02-04T23:33:03.926Z,2.54
2018-02-04T23:34:15.009Z,2.54
2018-02-04T23:35:03.887Z,2.49
2018-02-04T23:36:03.889Z,2.45
2018-02-04T23:37:03.856Z,2.49
2018-02-04T23:38:03.830Z,2.46
2018-02-04T23:39:03.822Z,2.49
2018-02-04T23:40:03.794Z,2.46
2018-02-04T23:41:03.808Z,2.34
2018-02-04T23:42:03.801Z,2.28
2018-02-04T23:43:03.742Z,2.30
2018-02-04T23:44:03.722Z,2.28
2018-02-04T23:45:03.716Z,2.31
2018-02-04T23:46:03.688Z,2.35
2018-02-04T23:47:03.737Z,2.35
2018-02-04T23:48:03.643Z,2.34
2018-02-04T23:49:03.632Z,2.34
2018-02-04T23:50:03.617Z,2.45
2018-02-04T23:51:03.600Z,2.41
2018-02-04T23:52:03.570Z,2.41
2018-02-04T23:53:03.570Z,2.42
2018-02-04T23:54:03.540Z,2.41
2018-02-04T23:55:03.527Z,2.42
2018-02-04T23:56:03.511Z,2.30
2018-02-04T23:57:03.498Z,2.28
2018-02-04T23:58:03.465Z,2.34
2018-02-04T23:59:03.462Z,2.30
